createdAt,value
2018-12-24T16:24:53.160Z,103404.82
2018-12-24T16:25:54.025Z,103404.22
2018-12-24T16:26:54.416Z,103404.12
2018-12-24T16:27:54.712Z,103404.28
2018-12-24T16:28:55.107Z,103404.62
2018-12-24T16:29:55.423Z,103404.78
2018-12-24T16:30:55.708Z,103405.26
2018-12-24T16:31:56.023Z,103405.52
2018-12-24T16:32:56.395Z,103406.53
2018-12-24T16:33:57.087Z,103406.59
2018-12-24T16:34:57.964Z,103407.09
2018-12-24T16:35:58.312Z,103407.86
2018-12-24T16:36:58.613Z,103408.77
2018-12-24T16:37:58.896Z,103409.43
2018-12-24T16:38:59.291Z,103410.27
2018-12-24T16:39:59.587Z,103411.20
2018-12-24T16:40:59.924Z,103411.84
2018-12-24T16:42:00.121Z,103412.57
2018-12-24T16:43:00.354Z,103413.08
2018-12-24T16:44:00.752Z,103413.05
2018-12-24T16:44:59.918Z,103413.37
2018-12-24T16:46:00.697Z,103413.45
2018-12-24T16:47:02.024Z,103414.11
2018-12-24T16:48:01.072Z,103414.45
2018-12-24T16:49:02.442Z,103413.88
2018-12-24T16:50:02.813Z,103414.38
2018-12-24T16:51:03.415Z,103414.21
2018-12-24T16:52:03.237Z,103413.95
2018-12-24T16:53:04.797Z,103412.97
2018-12-24T16:54:05.143Z,103412.38
2018-12-24T16:55:05.631Z,103412.24
2018-12-24T16:56:06.331Z,103412.07
2018-12-24T16:57:06.692Z,103411.34
2018-12-24T16:58:07.033Z,103411.20
2018-12-24T16:59:07.411Z,103411.03
2018-12-24T17:00:07.774Z,103410.56
2018-12-24T17:01:08.685Z,103410.80
2018-12-24T17:02:09.065Z,103411.11
2018-12-24T17:03:09.407Z,103410.58
2018-12-24T17:04:09.825Z,103410.98
2018-12-24T17:05:10.352Z,103411.35
2018-12-24T17:06:10.732Z,103411.99
2018-12-24T17:07:11.153Z,103412.93
2018-12-24T17:08:11.538Z,103413.64
2018-12-24T17:09:11.877Z,103414.84
2018-12-24T17:09:20.217Z,103432.93
2018-12-24T17:10:21.574Z,103432.83
2018-12-24T17:11:21.877Z,103433.27
2018-12-24T17:12:22.512Z,103433.53
2018-12-24T17:13:22.860Z,103433.70
2018-12-24T17:14:23.219Z,103433.36
2018-12-24T17:15:23.692Z,103433.33
2018-12-24T17:16:24.146Z,103433.59
2018-12-24T17:17:24.528Z,103433.50
2018-12-24T17:18:24.919Z,103433.66
2018-12-24T17:19:24.178Z,103433.56
2018-12-24T17:20:25.636Z,103433.91
2018-12-24T17:21:25.990Z,103433.73
2018-12-24T17:22:25.356Z,103433.36
2018-12-24T17:23:26.895Z,103433.37
2018-12-24T17:24:27.253Z,103433.34
2018-12-24T17:25:27.581Z,103433.73
2018-12-24T17:26:28.147Z,103434.04
2018-12-24T17:27:28.799Z,103434.00
2018-12-24T17:28:29.149Z,103434.14
2018-12-24T17:29:29.529Z,103433.58
2018-12-24T17:30:29.912Z,103433.45
2018-12-24T17:31:30.390Z,103432.71
2018-12-24T17:32:30.751Z,103432.65
2018-12-24T17:33:31.038Z,103432.39
2018-12-24T17:34:31.367Z,103432.72
2018-12-24T17:35:31.726Z,103433.25
2018-12-24T17:36:32.242Z,103433.89
2018-12-24T17:37:32.833Z,103433.92
2018-12-24T17:38:33.221Z,103434.13
2018-12-24T17:39:33.545Z,103434.42
2018-12-24T17:40:34.003Z,103435.22
2018-12-24T17:41:34.502Z,103435.76
2018-12-24T17:42:34.796Z,103436.33
2018-12-24T17:43:35.203Z,103436.89
2018-12-24T17:44:35.515Z,103437.42
2018-12-24T17:45:35.898Z,103437.83
2018-12-24T17:46:36.280Z,103438.89
2018-12-24T17:47:36.601Z,103439.56
2018-12-24T17:48:36.972Z,103440.20
2018-12-24T17:49:37.249Z,103440.96
2018-12-24T17:50:37.767Z,103441.36
2018-12-24T17:51:38.620Z,103442.42
2018-12-24T17:52:38.947Z,103443.92
2018-12-24T17:53:39.298Z,103445.27
2018-12-24T17:54:39.591Z,103446.09
2018-12-24T17:55:40.195Z,103447.56
2018-12-24T17:55:48.539Z,103472.47
2018-12-24T17:56:49.917Z,103472.23
2018-12-24T17:57:50.307Z,103472.23
2018-12-24T17:58:50.601Z,103472.13
2018-12-24T17:59:51.056Z,103472.53
2018-12-24T18:00:50.504Z,103473.20
2018-12-24T18:01:51.919Z,103473.00
2018-12-24T18:02:52.298Z,103473.67
2018-12-24T18:03:52.723Z,103474.00
2018-12-24T18:04:52.112Z,103474.27
2018-12-24T18:05:53.563Z,103474.90
2018-12-24T18:06:54.103Z,103475.23
2018-12-24T18:07:54.460Z,103475.44
2018-12-24T18:08:54.725Z,103476.00
2018-12-24T18:09:55.103Z,103476.47
2018-12-24T18:10:55.570Z,103476.77
2018-12-24T18:11:55.976Z,103477.66
2018-12-24T18:12:56.641Z,103479.00
2018-12-24T18:13:57.014Z,103479.46
2018-12-24T18:14:57.439Z,103480.42
2018-12-24T18:15:57.206Z,103480.63
2018-12-24T18:16:57.845Z,103481.19
2018-12-24T18:17:59.239Z,103481.86
2018-12-24T18:18:59.632Z,103482.22
2018-12-24T18:20:00.005Z,103482.48
2018-12-24T18:20:59.528Z,103482.71
2018-12-24T18:22:00.904Z,103482.08
2018-12-24T18:23:01.360Z,103481.81
2018-12-24T18:24:01.722Z,103481.94
2018-12-24T18:25:02.139Z,103482.38
2018-12-24T18:26:02.543Z,103482.77
2018-12-24T18:27:03.011Z,103483.27
2018-12-24T18:28:03.343Z,103484.30
2018-12-24T18:29:03.764Z,103485.80
2018-12-24T18:30:04.253Z,103488.03
2018-12-24T18:31:04.552Z,103490.27
2018-12-24T18:32:04.791Z,103492.97
2018-12-24T18:33:05.655Z,103495.42
2018-12-24T18:34:06.091Z,103498.33
2018-12-24T18:35:06.410Z,103501.72
2018-12-24T18:36:06.945Z,103504.45
2018-12-24T18:37:07.296Z,103507.19
2018-12-24T18:38:07.358Z,103509.98
2018-12-24T18:39:07.681Z,103512.78
2018-12-24T18:40:08.658Z,103515.08
2018-12-24T18:41:09.223Z,103517.38
2018-12-24T18:42:09.388Z,103519.33
2018-12-24T18:43:09.685Z,103521.30
2018-12-24T18:43:18.169Z,103548.43
2018-12-24T18:44:19.639Z,103548.16
2018-12-24T18:45:19.974Z,103547.94
2018-12-24T18:46:20.263Z,103547.77
2018-12-24T18:47:20.528Z,103547.27
2018-12-24T18:48:21.194Z,103547.09
2018-12-24T18:49:21.526Z,103547.30
2018-12-24T18:50:21.883Z,103548.37
2018-12-24T18:51:22.261Z,103549.41
2018-12-24T18:52:22.536Z,103550.47
2018-12-24T18:53:22.800Z,103552.23
2018-12-24T18:54:23.126Z,103552.91
2018-12-24T18:55:23.351Z,103553.47
2018-12-24T18:56:25.181Z,103553.47
2018-12-24T18:57:24.522Z,103553.43
2018-12-24T18:58:24.846Z,103553.79
2018-12-24T18:59:25.272Z,103554.59
2018-12-24T19:00:25.850Z,103554.58
2018-12-24T19:01:26.294Z,103555.61
2018-12-24T19:02:26.959Z,103556.24
2018-12-24T19:03:27.299Z,103557.30
2018-12-24T19:04:27.946Z,103558.70
2018-12-24T19:05:28.492Z,103560.26
2018-12-24T19:06:28.994Z,103561.98
2018-12-24T19:07:29.367Z,103563.69
2018-12-24T19:08:29.867Z,103566.02
2018-12-24T19:09:30.394Z,103568.91
2018-12-24T19:10:30.789Z,103571.53
2018-12-24T19:11:31.068Z,103574.50
2018-12-24T19:12:31.495Z,103576.85
2018-12-24T19:13:31.809Z,103579.64
2018-12-24T19:14:32.161Z,103582.77
2018-12-24T19:15:32.469Z,103585.50
2018-12-24T19:16:32.926Z,103588.45
2018-12-24T19:17:41.279Z,103590.91
2018-12-24T19:18:32.706Z,103593.88
2018-12-24T19:19:34.111Z,103596.66
2018-12-24T19:20:34.489Z,103599.48
2018-12-24T19:21:34.805Z,103602.37
2018-12-24T19:22:35.246Z,103604.80
2018-12-24T19:23:35.670Z,103607.92
2018-12-24T19:24:36.473Z,103610.73
2018-12-24T19:25:36.874Z,103613.94
2018-12-24T19:26:37.186Z,103616.93
2018-12-24T19:27:38.611Z,103620.55
2018-12-24T19:27:46.794Z,103680.34
2018-12-24T19:28:47.022Z,103680.08
2018-12-24T19:29:48.379Z,103680.47
2018-12-24T19:30:48.773Z,103680.30
2018-12-24T19:31:49.140Z,103679.94
2018-12-24T19:32:49.461Z,103680.00
2018-12-24T19:33:49.884Z,103679.55
2018-12-24T19:34:50.359Z,103679.74
2018-12-24T19:35:50.753Z,103678.93
2018-12-24T19:36:51.219Z,103679.28
2018-12-24T19:37:51.831Z,103679.41
2018-12-24T19:38:52.421Z,103679.59
2018-12-24T19:39:52.837Z,103679.78
2018-12-24T19:40:53.168Z,103680.07
2018-12-24T19:41:53.501Z,103679.77
2018-12-24T19:42:53.826Z,103679.05
2018-12-24T19:43:54.334Z,103678.28
2018-12-24T19:44:54.778Z,103677.74
2018-12-24T19:45:55.094Z,103677.13
2018-12-24T19:46:55.502Z,103676.03
2018-12-24T19:47:55.883Z,103674.83
2018-12-24T19:48:56.195Z,103673.28
2018-12-24T19:49:56.614Z,103672.45
2018-12-24T19:50:56.968Z,103670.91
2018-12-24T19:51:57.295Z,103669.86
2018-12-24T19:52:57.645Z,103668.59
2018-12-24T19:53:58.069Z,103668.29
2018-12-24T19:54:58.711Z,103667.58
2018-12-24T19:55:59.064Z,103666.91
2018-12-24T19:56:59.354Z,103666.70
2018-12-24T19:57:59.795Z,103665.62
2018-12-24T19:59:00.107Z,103665.41
2018-12-24T20:00:00.576Z,103665.16
2018-12-24T20:01:00.121Z,103665.28
2018-12-24T20:02:00.509Z,103665.47
2018-12-24T20:03:02.157Z,103665.05
2018-12-24T20:04:02.501Z,103665.33
2018-12-24T20:05:03.045Z,103665.08
2018-12-24T20:06:03.424Z,103664.83
2018-12-24T20:07:04.042Z,103664.78
2018-12-24T20:08:04.509Z,103663.87
2018-12-24T20:09:04.941Z,103664.39
2018-12-24T20:10:05.620Z,103664.01
2018-12-24T20:11:06.019Z,103663.86
2018-12-24T20:12:06.424Z,103663.32
2018-12-24T20:13:06.958Z,103663.21
2018-12-24T20:13:15.338Z,103657.47
2018-12-24T20:14:16.702Z,103656.87
2018-12-24T20:15:17.094Z,103656.97
2018-12-24T20:16:17.402Z,103656.47
2018-12-24T20:17:17.817Z,103655.88
2018-12-24T20:18:18.238Z,103656.70
2018-12-24T20:19:18.546Z,103657.03
2018-12-24T20:20:18.988Z,103657.93
2018-12-24T20:21:19.493Z,103658.66
2018-12-24T20:22:19.939Z,103659.83
2018-12-24T20:23:20.320Z,103660.66
2018-12-24T20:24:20.714Z,103661.48
2018-12-24T20:25:21.029Z,103662.66
2018-12-24T20:26:21.645Z,103663.16
2018-12-24T20:27:22.077Z,103663.65
2018-12-24T20:28:22.612Z,103663.81
2018-12-24T20:29:22.898Z,103663.98
2018-12-24T20:30:23.282Z,103664.92
2018-12-24T20:31:23.921Z,103665.69
2018-12-24T20:32:24.278Z,103665.62
2018-12-24T20:33:24.572Z,103665.36
2018-12-24T20:34:24.880Z,103665.30
2018-12-24T20:35:24.172Z,103665.19
2018-12-24T20:36:25.434Z,103665.12
2018-12-24T20:37:25.744Z,103665.78
2018-12-24T20:38:26.313Z,103666.78
2018-12-24T20:39:26.659Z,103666.84
2018-12-24T20:40:27.007Z,103667.34
2018-12-24T20:41:27.522Z,103668.61
2018-12-24T20:42:27.989Z,103669.28
2018-12-24T20:43:28.333Z,103670.17
2018-12-24T20:44:28.991Z,103670.41
2018-12-24T20:45:29.283Z,103670.19
2018-12-24T20:46:29.631Z,103670.21
2018-12-24T20:47:29.970Z,103670.17
2018-12-24T20:48:31.442Z,103669.62
2018-12-24T20:49:30.837Z,103669.31
2018-12-24T20:50:31.177Z,103668.99
2018-12-24T20:51:31.491Z,103668.38
2018-12-24T20:52:31.941Z,103668.34
2018-12-24T20:53:32.323Z,103667.80
2018-12-24T20:54:32.657Z,103667.65
2018-12-24T20:55:33.006Z,103668.77
2018-12-24T20:56:33.480Z,103669.16
2018-12-24T20:57:33.848Z,103669.84
2018-12-24T20:57:42.185Z,103680.36
2018-12-24T20:58:43.719Z,103679.59
2018-12-24T20:59:44.226Z,103679.76
2018-12-24T21:00:44.596Z,103679.65
2018-12-24T21:01:45.066Z,103680.05
2018-12-24T21:02:45.521Z,103679.78
2018-12-24T21:03:46.166Z,103680.44
2018-12-24T21:04:46.613Z,103680.27
2018-12-24T21:05:46.973Z,103680.27
2018-12-24T21:06:47.559Z,103680.11
2018-12-24T21:07:48.214Z,103680.48
2018-12-24T21:08:48.708Z,103680.38
2018-12-24T21:09:49.111Z,103680.42
2018-12-24T21:10:49.559Z,103680.53
2018-12-24T21:11:50.011Z,103680.14
2018-12-24T21:12:50.391Z,103679.75
2018-12-24T21:13:50.710Z,103679.80
2018-12-24T21:14:51.023Z,103679.67
2018-12-24T21:15:51.360Z,103679.55
2018-12-24T21:16:51.676Z,103679.16
2018-12-24T21:17:52.036Z,103679.47
2018-12-24T21:18:52.389Z,103679.41
2018-12-24T21:19:52.743Z,103679.86
2018-12-24T21:20:53.162Z,103679.86
2018-12-24T21:21:53.630Z,103680.00
2018-12-24T21:22:54.100Z,103680.28
2018-12-24T21:23:54.721Z,103680.45
2018-12-24T21:24:55.494Z,103681.06
2018-12-24T21:25:55.968Z,103681.27
2018-12-24T21:26:56.500Z,103681.94
2018-12-24T21:27:56.965Z,103682.47
2018-12-24T21:28:57.348Z,103682.97
2018-12-24T21:29:57.762Z,103683.58
2018-12-24T21:30:58.320Z,103683.68
2018-12-24T21:31:58.796Z,103683.95
2018-12-24T21:32:59.220Z,103684.62
2018-12-24T21:33:59.640Z,103685.05
2018-12-24T21:35:00.160Z,103685.39
2018-12-24T21:35:59.690Z,103685.16
2018-12-24T21:37:01.123Z,103685.93
2018-12-24T21:38:01.427Z,103686.10
2018-12-24T21:39:01.755Z,103686.38
2018-12-24T21:40:02.259Z,103687.55
2018-12-24T21:41:01.517Z,103688.58
2018-12-24T21:42:03.006Z,103689.52
2018-12-24T21:42:12.175Z,103702.14
2018-12-24T21:43:12.614Z,103701.70
2018-12-24T21:44:13.186Z,103701.37
2018-12-24T21:45:13.528Z,103701.70
2018-12-24T21:46:13.930Z,103701.37
2018-12-24T21:47:14.281Z,103701.20
2018-12-24T21:48:14.630Z,103700.44
2018-12-24T21:49:14.940Z,103699.77
2018-12-24T21:50:15.287Z,103699.53
2018-12-24T21:51:16.078Z,103699.44
2018-12-24T21:52:16.596Z,103699.23
2018-12-24T21:53:17.005Z,103699.73
2018-12-24T21:54:18.998Z,103699.83
2018-12-24T21:55:18.331Z,103699.93
2018-12-24T21:56:18.679Z,103699.44
2018-12-24T21:57:19.167Z,103699.14
2018-12-24T21:58:19.637Z,103699.02
2018-12-24T21:59:20.351Z,103698.47
2018-12-24T22:00:20.735Z,103698.67
2018-12-24T22:01:21.371Z,103698.45
2018-12-24T22:02:21.683Z,103698.33
2018-12-24T22:03:22.297Z,103698.20
2018-12-24T22:04:23.095Z,103698.52
2018-12-24T22:05:23.677Z,103698.30
2018-12-24T22:06:24.050Z,103698.22
2018-12-24T22:07:24.655Z,103697.50
2018-12-24T22:08:24.975Z,103697.64
2018-12-24T22:09:25.410Z,103697.20
2018-12-24T22:10:25.824Z,103697.17
2018-12-24T22:11:26.421Z,103697.23
2018-12-24T22:12:26.803Z,103697.47
2018-12-24T22:13:27.194Z,103698.02
2018-12-24T22:14:27.522Z,103697.83
2018-12-24T22:15:27.838Z,103697.71
2018-12-24T22:16:28.276Z,103696.92
2018-12-24T22:17:28.678Z,103697.30
2018-12-24T22:18:32.333Z,103697.12
2018-12-24T22:19:28.535Z,103697.16
2018-12-24T22:20:28.873Z,103697.04
2018-12-24T22:21:30.450Z,103697.65
2018-12-24T22:22:31.966Z,103697.59
2018-12-24T22:23:31.375Z,103697.80
2018-12-24T22:24:31.947Z,103697.73
2018-12-24T22:25:32.437Z,103697.61
2018-12-24T22:26:33.206Z,103697.76
2018-12-24T22:27:32.686Z,103697.97
2018-12-24T22:28:33.252Z,103698.79
2018-12-24T22:29:33.725Z,103698.70
2018-12-24T22:30:35.282Z,103698.15
2018-12-24T22:30:43.690Z,103693.95
2018-12-24T22:31:45.053Z,103693.17
2018-12-24T22:32:45.552Z,103693.08
2018-12-24T22:33:44.845Z,103693.24
2018-12-24T22:34:46.450Z,103692.01
2018-12-24T22:35:46.899Z,103691.25
2018-12-24T22:36:47.277Z,103691.18
2018-12-24T22:37:48.016Z,103690.95
2018-12-24T22:38:47.052Z,103690.55
2018-12-24T22:39:48.494Z,103690.55
2018-12-24T22:40:48.829Z,103690.62
2018-12-24T22:41:49.517Z,103691.28
2018-12-24T22:42:49.872Z,103691.34
2018-12-24T22:43:50.232Z,103691.52
2018-12-24T22:44:50.926Z,103691.25
2018-12-24T22:45:51.400Z,103691.34
2018-12-24T22:46:51.742Z,103690.47
2018-12-24T22:47:52.118Z,103690.70
2018-12-24T22:48:52.610Z,103690.14
2018-12-24T22:49:53.129Z,103690.14
2018-12-24T22:50:53.489Z,103689.97
2018-12-24T22:51:54.062Z,103689.70
2018-12-24T22:52:54.341Z,103689.20
2018-12-24T22:53:54.709Z,103689.20
2018-12-24T22:54:54.349Z,103689.20
2018-12-24T22:55:55.687Z,103689.06
2018-12-24T22:56:56.011Z,103689.05
2018-12-24T22:57:56.436Z,103689.45
2018-12-24T22:58:56.937Z,103689.69
2018-12-24T22:59:57.312Z,103689.34
2018-12-24T23:00:57.640Z,103689.08
2018-12-24T23:01:58.216Z,103688.64
2018-12-24T23:02:58.546Z,103687.97
2018-12-24T23:03:59.005Z,103687.74
2018-12-24T23:05:00.339Z,103687.52
2018-12-24T23:05:59.836Z,103686.95
2018-12-24T23:07:00.248Z,103686.52
2018-12-24T23:08:00.546Z,103686.12
2018-12-24T23:09:00.908Z,103685.72
2018-12-24T23:10:01.332Z,103685.13
2018-12-24T23:11:02.114Z,103685.02
2018-12-24T23:12:02.620Z,103684.69
2018-12-24T23:13:02.946Z,103685.15
2018-12-24T23:14:03.260Z,103685.38
2018-12-24T23:15:03.920Z,103685.76
2018-12-24T23:16:04.472Z,103686.52
2018-12-24T23:17:04.734Z,103687.20
2018-12-24T23:18:05.061Z,103687.87
2018-12-24T23:18:13.111Z,103708.23
2018-12-24T23:19:14.429Z,103708.00
2018-12-24T23:20:14.981Z,103708.33
2018-12-24T23:21:15.288Z,103708.56
2018-12-24T23:22:16.088Z,103708.63
2018-12-24T23:23:16.469Z,103708.95
2018-12-24T23:24:16.932Z,103709.52
2018-12-24T23:25:17.258Z,103709.91
2018-12-24T23:26:17.633Z,103711.17
2018-12-24T23:27:18.260Z,103712.06
2018-12-24T23:28:18.689Z,103712.53
2018-12-24T23:29:19.079Z,103713.36
2018-12-24T23:30:19.453Z,103714.14
2018-12-24T23:31:19.883Z,103714.87
2018-12-24T23:32:20.211Z,103715.42
2018-12-24T23:33:20.494Z,103716.16
2018-12-24T23:34:20.813Z,103716.74
2018-12-24T23:35:21.200Z,103717.16
2018-12-24T23:36:21.514Z,103717.45
2018-12-24T23:37:22.254Z,103717.64
2018-12-24T23:38:22.693Z,103717.98
2018-12-24T23:39:23.000Z,103718.33
2018-12-24T23:40:23.024Z,103718.57
2018-12-24T23:41:23.355Z,103718.48
2018-12-24T23:42:23.807Z,103718.23
2018-12-24T23:43:24.207Z,103717.41
2018-12-24T23:44:24.564Z,103716.81
2018-12-24T23:45:25.080Z,103716.56
2018-12-24T23:46:25.420Z,103715.97
2018-12-24T23:47:25.774Z,103715.71
2018-12-24T23:48:26.170Z,103715.18
2018-12-24T23:49:26.497Z,103714.98
2018-12-24T23:50:26.822Z,103714.55
2018-12-24T23:51:27.400Z,103714.80
2018-12-24T23:52:27.888Z,103714.70
2018-12-24T23:53:28.582Z,103714.21
2018-12-24T23:54:28.948Z,103713.50
2018-12-24T23:55:29.325Z,103712.08
2018-12-24T23:56:29.670Z,103710.98
2018-12-24T23:57:29.991Z,103709.97
2018-12-24T23:58:30.372Z,103709.03
2018-12-24T23:59:30.913Z,103707.61
